BBC Orinoco — V2DM2 — position and weather

sailwx.info

Track history (hours):
 
Tides and Currents Weather Stations Pressure Air Temp Water Temp Dewpoint Dewpoint Depression Visibility Wind Speed Wind Dir Waves Ship Positions

BBC Orinoco

Last reported at 2017-Mar-28 00:32 UTC. Time now 2017-Mar-28 00:41 UTC.
Position N 51°15' E 004°22'.

Length 143 m; draft 6.7 m.

Type: Ship. MMSI: 305255000.

Date/timePositionNaut miles runAvg speedWind from/ knotsBaromVisibWave heightAir tempDewpointWater temp
2017-Mar-28 00:32N 51°15' E 004°22'0 0.0
2017-Mar-27 23:32N 51°15' E 004°22'0 0.0
2017-Mar-27 22:31N 51°15' E 004°22'0 0.0
2017-Mar-27 21:31N 51°15' E 004°22'0 0.0
2017-Mar-27 20:30N 51°15' E 004°22'0 0.0
2017-Mar-27 19:33N 51°15' E 004°22'0 0.0
2017-Mar-27 18:33N 51°15' E 004°22'0 0.0
2017-Mar-27 17:32N 51°15' E 004°22'0 0.0
2017-Mar-27 16:32N 51°15' E 004°22'0 0.0
2017-Mar-27 15:28N 51°15' E 004°22'0 0.0
2017-Mar-27 14:31N 51°15' E 004°22'0 0.0
2017-Mar-27 13:34N 51°15' E 004°22'0 0.0
2017-Mar-27 12:33N 51°15' E 004°22'0 0.0
2017-Mar-27 11:33N 51°15' E 004°22'0 0.0
2017-Mar-27 10:32N 51°15' E 004°22'0 0.0
2017-Mar-27 09:32N 51°15' E 004°22'0 0.0
2017-Mar-27 08:31N 51°15' E 004°22'0 0.0
2017-Mar-27 07:31N 51°15' E 004°22'0 0.0
2017-Mar-27 06:33N 51°15' E 004°22'0 0.0
2017-Mar-27 05:33N 51°15' E 004°22'0 0.0
2017-Mar-27 04:33N 51°15' E 004°22'0 0.0
2017-Mar-27 03:32N 51°15' E 004°22'0 0.0
2017-Mar-27 02:32N 51°15' E 004°22'0 0.0
2017-Mar-27 01:31N 51°15' E 004°22'0 0.0
2017-Mar-27 00:28N 51°15' E 004°22'0 0.0
2017-Mar-26 23:33N 51°15' E 004°22'0 0.0
2017-Mar-26 22:33N 51°15' E 004°22'0 0.0
2017-Mar-26 21:33N 51°15' E 004°22'0 0.0
2017-Mar-26 20:32N 51°15' E 004°22'0 0.0
2017-Mar-26 19:32N 51°15' E 004°22'0 0.0
2017-Mar-26 18:31N 51°15' E 004°22'0 0.0
2017-Mar-26 17:31N 51°15' E 004°22'0 0.0
2017-Mar-26 16:33N 51°15' E 004°22'0 0.0
2017-Mar-26 15:33N 51°15' E 004°22'0 0.0
2017-Mar-26 14:33N 51°15' E 004°22'0 0.0
2017-Mar-26 13:29N 51°15' E 004°22'0 0.0
2017-Mar-26 12:32N 51°15' E 004°22'0 0.0
2017-Mar-26 11:31N 51°15' E 004°22'0 0.0
2017-Mar-26 10:31N 51°15' E 004°22'0 0.0
2017-Mar-26 09:33N 51°15' E 004°22'0 0.0
2017-Mar-26 08:33N 51°15' E 004°22'0 0.0
2017-Mar-26 07:33N 51°15' E 004°22'0 0.0
2017-Mar-26 06:32N 51°15' E 004°22'0 0.0
2017-Mar-26 05:29N 51°15' E 004°22'0 0.0
2017-Mar-26 04:31N 51°15' E 004°22'0 0.0
2017-Mar-26 03:25N 51°15' E 004°22'0 0.0
2017-Mar-26 02:33N 51°15' E 004°22'0 0.0
2017-Mar-26 01:33N 51°15' E 004°22'0 0.0
2017-Mar-26 00:33N 51°15' E 004°22'0 0.0
2017-Mar-25 23:32N 51°15' E 004°22'0 0.0
2017-Mar-25 22:32N 51°15' E 004°22'0 0.2
2017-Mar-25 21:33N 51°15' E 004°22'7 6.6
2017-Mar-25 20:33N 51°21' E 004°17'1 1.2
2017-Mar-25 19:33N 51°21' E 004°15'11 5.0
2017-Mar-25 17:26N 51°26' E 004°00'8 8.4
2017-Mar-25 16:26N 51°21' E 003°50'10 8.8
2017-Mar-25 15:21N 51°26' E 003°37'7 9.4
2017-Mar-25 14:33N 51°25' E 003°25'1211.5
2017-Mar-25 13:33N 51°24' E 003°07'1212.2
2017-Mar-25 12:33N 51°22' E 002°48'8 8.1
2017-Mar-25 11:33N 51°30' E 002°47'1212.5
2017-Mar-25 10:33N 51°39' E 003°01'1313.1
2017-Mar-25 09:33N 51°49' E 003°15'1414.0
2017-Mar-25 08:33N 52°02' E 003°23'1414.5
2017-Mar-25 07:34N 52°02' E 003°46'1414.0
2017-Mar-25 06:33N 51°58' E 004°08'1211.7
2017-Mar-25 05:33N 51°54' E 004°26'1 1.0
2017-Mar-25 04:32N 51°54' E 004°27'0 0.0
2017-Mar-25 03:31N 51°54' E 004°27'0 0.0
2017-Mar-25 02:33N 51°54' E 004°27'0 0.0
2017-Mar-25 01:33N 51°54' E 004°27'0 0.0
2017-Mar-25 00:33N 51°54' E 004°27'0 0.0
2017-Mar-24 23:32N 51°54' E 004°27'0 0.0
2017-Mar-24 22:32N 51°54' E 004°27'0 0.0
2017-Mar-24 21:32N 51°54' E 004°27'0 0.0
2017-Mar-24 20:31N 51°54' E 004°27'0 0.0
2017-Mar-24 19:33N 51°54' E 004°27'0 0.0
2017-Mar-24 18:33N 51°54' E 004°27'0 0.0
2017-Mar-24 17:32N 51°54' E 004°27'0 0.0
2017-Mar-24 16:29N 51°54' E 004°27'0 0.0
2017-Mar-24 15:32N 51°54' E 004°27'0 0.0
2017-Mar-24 14:32N 51°54' E 004°27'0 0.0
2017-Mar-24 13:31N 51°54' E 004°27'0 0.0
2017-Mar-24 12:33N 51°54' E 004°27'0 0.0
2017-Mar-24 11:30N 51°54' E 004°27'0 0.0
2017-Mar-24 10:29N 51°54' E 004°27'0 0.0
2017-Mar-24 09:32N 51°54' E 004°27'0 0.0
2017-Mar-24 08:32N 51°54' E 004°27'0 0.0
2017-Mar-24 07:32N 51°54' E 004°27'0 0.0
2017-Mar-24 06:31N 51°54' E 004°27'0 0.0
2017-Mar-24 05:33N 51°54' E 004°27'0 0.0
2017-Mar-24 04:33N 51°54' E 004°27'0 0.0
2017-Mar-24 03:32N 51°54' E 004°27'0 0.0
2017-Mar-24 02:32N 51°54' E 004°27'0 0.0
2017-Mar-24 01:32N 51°54' E 004°27'0 0.0
2017-Mar-24 00:31N 51°54' E 004°27'0 0.0
2017-Mar-23 23:31N 51°54' E 004°27'0 0.0
2017-Mar-23 22:33N 51°54' E 004°27'0 0.0
2017-Mar-23 21:33N 51°54' E 004°27'0 0.0
2017-Mar-23 20:32N 51°54' E 004°27'0 0.0
2017-Mar-23 19:32N 51°54' E 004°27'0 0.3
2017-Mar-23 18:34N 51°54' E 004°27'2 1.5
2017-Mar-23 17:32N 51°54' E 004°25'0 0.0
2017-Mar-23 16:32N 51°54' E 004°25'0 0.0
2017-Mar-23 15:32N 51°54' E 004°25'0 0.0
2017-Mar-23 14:31N 51°54' E 004°25'0 0.0
2017-Mar-23 13:31N 51°54' E 004°25'0 0.0
2017-Mar-23 12:33N 51°54' E 004°25'0 0.0
2017-Mar-23 11:33N 51°54' E 004°25'0 0.0
2017-Mar-23 10:33N 51°54' E 004°25'0 0.1
2017-Mar-23 09:33N 51°54' E 004°25'0 0.0
2017-Mar-23 08:31N 51°54' E 004°25'0 0.1
2017-Mar-23 07:28N 51°54' E 004°25'0 0.0
2017-Mar-23 06:28N 51°54' E 004°25'0 0.0
2017-Mar-23 05:33N 51°54' E 004°25'0 0.0
2017-Mar-23 04:33N 51°54' E 004°25'0 0.0
2017-Mar-23 03:33N 51°54' E 004°25'0 0.0
2017-Mar-23 02:32N 51°54' E 004°25'0 0.0
2017-Mar-23 01:31N 51°54' E 004°25'0 0.0
2017-Mar-23 00:31N 51°54' E 004°25'0 0.0
2017-Mar-22 23:31N 51°54' E 004°25'0 0.0
2017-Mar-22 22:31N 51°54' E 004°25'0 0.0
2017-Mar-22 21:33N 51°54' E 004°25'0 0.0
2017-Mar-22 20:33N 51°54' E 004°25'0 0.0
2017-Mar-22 19:32N 51°54' E 004°25'0 0.0
2017-Mar-22 18:31N 51°54' E 004°25'0 0.0
2017-Mar-22 17:31N 51°54' E 004°25'0 0.1
2017-Mar-22 16:32N 51°54' E 004°25'6 6.3
2017-Mar-22 15:34N 51°55' E 004°15'10 9.6
2017-Mar-22 14:34N 51°60' E 004°02'6512.2
2017-Mar-22 09:16N 51°35' E 002°25'1013.7
2017-Mar-22 08:33N 51°27' E 002°15'1413.9
2017-Mar-22 07:33N 51°15' E 002°04'1414.1
2017-Mar-22 06:33N 51°06' E 001°47'1514.9
2017-Mar-22 05:33N 50°55' E 001°31'6612.8
2017-Mar-22 00:21N 50°18' E 000°04'1012.8
2017-Mar-21 23:33N 50°15' W 000°11'1412.5
2017-Mar-21 22:27N 50°12' W 000°32'1112.1
2017-Mar-21 21:33N 50°09' W 000°48'1211.9
2017-Mar-21 20:32N 50°06' W 001°07'1111.7
2017-Mar-21 19:33N 50°03' W 001°24'1211.8
2017-Mar-21 18:34N 49°60' W 001°42'1212.1
2017-Mar-21 17:33N 49°57' W 001°60'13213.1
2017-Mar-21 07:28N 48°59' W 005°03'1213.1
2017-Mar-21 06:33N 48°52' W 005°18'56711.8
2017-Mar-19 06:32N 40°16' W 010°45'1111.1
2017-Mar-19 05:33N 40°05' W 010°48'6111.0
2017-Mar-19 00:03N 39°06' W 011°06'611.3
2017-Mar-18 23:33N 39°01' W 011°08'1111.3
2017-Mar-18 22:33N 38°50' W 011°11'1111.4
2017-Mar-18 21:33N 38°38' W 011°15'1211.6
2017-Mar-18 20:33N 38°27' W 011°18'1111.3
2017-Mar-18 19:33N 38°16' W 011°21'1111.1
2017-Mar-18 18:33N 38°05' W 011°24'1211.2
2017-Mar-18 17:29N 37°54' W 011°28'1011.2
2017-Mar-18 16:33N 37°43' W 011°31'1111.1
2017-Mar-18 15:33N 37°33' W 011°34'1111.2
2017-Mar-18 14:33N 37°22' W 011°38'1111.0
2017-Mar-18 13:33N 37°11' W 011°42'1110.9
2017-Mar-18 12:33N 37°01' W 011°45'2311.0
2017-Mar-18 10:30N 36°38' W 011°51'1011.0
2017-Mar-18 09:33N 36°28' W 011°54'  
Track history (hours):
 
Tides and Currents Weather Stations Pressure Air Temp Water Temp Dewpoint Dewpoint Depression Visibility Wind Speed Wind Dir Waves Ship Positions

BBC Orinoco

Last reported at 2017-Mar-28 00:32 UTC. Time now 2017-Mar-28 00:41 UTC.
Position N 51°15' E 004°22'.

Length 143 m; draft 6.7 m.

Type: Ship. MMSI: 305255000.

Date/timePositionNaut miles runAvg speedWind from/ knotsBaromVisibWave heightAir tempDewpointWater temp
2017-Mar-28 00:32N 51°15' E 004°22'0 0.0
2017-Mar-27 23:32N 51°15' E 004°22'0 0.0
2017-Mar-27 22:31N 51°15' E 004°22'0 0.0
2017-Mar-27 21:31N 51°15' E 004°22'0 0.0
2017-Mar-27 20:30N 51°15' E 004°22'0 0.0
2017-Mar-27 19:33N 51°15' E 004°22'0 0.0
2017-Mar-27 18:33N 51°15' E 004°22'0 0.0
2017-Mar-27 17:32N 51°15' E 004°22'0 0.0
2017-Mar-27 16:32N 51°15' E 004°22'0 0.0
2017-Mar-27 15:28N 51°15' E 004°22'0 0.0
2017-Mar-27 14:31N 51°15' E 004°22'0 0.0
2017-Mar-27 13:34N 51°15' E 004°22'0 0.0
2017-Mar-27 12:33N 51°15' E 004°22'0 0.0
2017-Mar-27 11:33N 51°15' E 004°22'0 0.0
2017-Mar-27 10:32N 51°15' E 004°22'0 0.0
2017-Mar-27 09:32N 51°15' E 004°22'0 0.0
2017-Mar-27 08:31N 51°15' E 004°22'0 0.0
2017-Mar-27 07:31N 51°15' E 004°22'0 0.0
2017-Mar-27 06:33N 51°15' E 004°22'0 0.0
2017-Mar-27 05:33N 51°15' E 004°22'0 0.0
2017-Mar-27 04:33N 51°15' E 004°22'0 0.0
2017-Mar-27 03:32N 51°15' E 004°22'0 0.0
2017-Mar-27 02:32N 51°15' E 004°22'0 0.0
2017-Mar-27 01:31N 51°15' E 004°22'0 0.0
2017-Mar-27 00:28N 51°15' E 004°22'0 0.0
2017-Mar-26 23:33N 51°15' E 004°22'0 0.0
2017-Mar-26 22:33N 51°15' E 004°22'0 0.0
2017-Mar-26 21:33N 51°15' E 004°22'0 0.0
2017-Mar-26 20:32N 51°15' E 004°22'0 0.0
2017-Mar-26 19:32N 51°15' E 004°22'0 0.0
2017-Mar-26 18:31N 51°15' E 004°22'0 0.0
2017-Mar-26 17:31N 51°15' E 004°22'0 0.0
2017-Mar-26 16:33N 51°15' E 004°22'0 0.0
2017-Mar-26 15:33N 51°15' E 004°22'0 0.0
2017-Mar-26 14:33N 51°15' E 004°22'0 0.0
2017-Mar-26 13:29N 51°15' E 004°22'0 0.0
2017-Mar-26 12:32N 51°15' E 004°22'0 0.0
2017-Mar-26 11:31N 51°15' E 004°22'0 0.0
2017-Mar-26 10:31N 51°15' E 004°22'0 0.0
2017-Mar-26 09:33N 51°15' E 004°22'0 0.0
2017-Mar-26 08:33N 51°15' E 004°22'0 0.0
2017-Mar-26 07:33N 51°15' E 004°22'0 0.0
2017-Mar-26 06:32N 51°15' E 004°22'0 0.0
2017-Mar-26 05:29N 51°15' E 004°22'0 0.0
2017-Mar-26 04:31N 51°15' E 004°22'0 0.0
2017-Mar-26 03:25N 51°15' E 004°22'0 0.0
2017-Mar-26 02:33N 51°15' E 004°22'0 0.0
2017-Mar-26 01:33N 51°15' E 004°22'0 0.0
2017-Mar-26 00:33N 51°15' E 004°22'0 0.0
2017-Mar-25 23:32N 51°15' E 004°22'0 0.0
2017-Mar-25 22:32N 51°15' E 004°22'0 0.2
2017-Mar-25 21:33N 51°15' E 004°22'7 6.6
2017-Mar-25 20:33N 51°21' E 004°17'1 1.2
2017-Mar-25 19:33N 51°21' E 004°15'11 5.0
2017-Mar-25 17:26N 51°26' E 004°00'8 8.4
2017-Mar-25 16:26N 51°21' E 003°50'10 8.8
2017-Mar-25 15:21N 51°26' E 003°37'7 9.4
2017-Mar-25 14:33N 51°25' E 003°25'1211.5
2017-Mar-25 13:33N 51°24' E 003°07'1212.2
2017-Mar-25 12:33N 51°22' E 002°48'8 8.1
2017-Mar-25 11:33N 51°30' E 002°47'1212.5
2017-Mar-25 10:33N 51°39' E 003°01'1313.1
2017-Mar-25 09:33N 51°49' E 003°15'1414.0
2017-Mar-25 08:33N 52°02' E 003°23'1414.5
2017-Mar-25 07:34N 52°02' E 003°46'1414.0
2017-Mar-25 06:33N 51°58' E 004°08'1211.7
2017-Mar-25 05:33N 51°54' E 004°26'1 1.0
2017-Mar-25 04:32N 51°54' E 004°27'0 0.0
2017-Mar-25 03:31N 51°54' E 004°27'0 0.0
2017-Mar-25 02:33N 51°54' E 004°27'0 0.0
2017-Mar-25 01:33N 51°54' E 004°27'0 0.0
2017-Mar-25 00:33N 51°54' E 004°27'0 0.0
2017-Mar-24 23:32N 51°54' E 004°27'0 0.0
2017-Mar-24 22:32N 51°54' E 004°27'0 0.0
2017-Mar-24 21:32N 51°54' E 004°27'0 0.0
2017-Mar-24 20:31N 51°54' E 004°27'0 0.0
2017-Mar-24 19:33N 51°54' E 004°27'0 0.0
2017-Mar-24 18:33N 51°54' E 004°27'0 0.0
2017-Mar-24 17:32N 51°54' E 004°27'0 0.0
2017-Mar-24 16:29N 51°54' E 004°27'0 0.0
2017-Mar-24 15:32N 51°54' E 004°27'0 0.0
2017-Mar-24 14:32N 51°54' E 004°27'0 0.0
2017-Mar-24 13:31N 51°54' E 004°27'0 0.0
2017-Mar-24 12:33N 51°54' E 004°27'0 0.0
2017-Mar-24 11:30N 51°54' E 004°27'0 0.0
2017-Mar-24 10:29N 51°54' E 004°27'0 0.0
2017-Mar-24 09:32N 51°54' E 004°27'0 0.0
2017-Mar-24 08:32N 51°54' E 004°27'0 0.0
2017-Mar-24 07:32N 51°54' E 004°27'0 0.0
2017-Mar-24 06:31N 51°54' E 004°27'0 0.0
2017-Mar-24 05:33N 51°54' E 004°27'0 0.0
2017-Mar-24 04:33N 51°54' E 004°27'0 0.0
2017-Mar-24 03:32N 51°54' E 004°27'0 0.0
2017-Mar-24 02:32N 51°54' E 004°27'0 0.0
2017-Mar-24 01:32N 51°54' E 004°27'0 0.0
2017-Mar-24 00:31N 51°54' E 004°27'0 0.0
2017-Mar-23 23:31N 51°54' E 004°27'0 0.0
2017-Mar-23 22:33N 51°54' E 004°27'0 0.0
2017-Mar-23 21:33N 51°54' E 004°27'0 0.0
2017-Mar-23 20:32N 51°54' E 004°27'0 0.0
2017-Mar-23 19:32N 51°54' E 004°27'0 0.3
2017-Mar-23 18:34N 51°54' E 004°27'2 1.5
2017-Mar-23 17:32N 51°54' E 004°25'0 0.0
2017-Mar-23 16:32N 51°54' E 004°25'0 0.0
2017-Mar-23 15:32N 51°54' E 004°25'0 0.0
2017-Mar-23 14:31N 51°54' E 004°25'0 0.0
2017-Mar-23 13:31N 51°54' E 004°25'0 0.0
2017-Mar-23 12:33N 51°54' E 004°25'0 0.0
2017-Mar-23 11:33N 51°54' E 004°25'0 0.0
2017-Mar-23 10:33N 51°54' E 004°25'0 0.1
2017-Mar-23 09:33N 51°54' E 004°25'0 0.0
2017-Mar-23 08:31N 51°54' E 004°25'0 0.1
2017-Mar-23 07:28N 51°54' E 004°25'0 0.0
2017-Mar-23 06:28N 51°54' E 004°25'0 0.0
2017-Mar-23 05:33N 51°54' E 004°25'0 0.0
2017-Mar-23 04:33N 51°54' E 004°25'0 0.0
2017-Mar-23 03:33N 51°54' E 004°25'0 0.0
2017-Mar-23 02:32N 51°54' E 004°25'0 0.0
2017-Mar-23 01:31N 51°54' E 004°25'0 0.0
2017-Mar-23 00:31N 51°54' E 004°25'0 0.0
2017-Mar-22 23:31N 51°54' E 004°25'0 0.0
2017-Mar-22 22:31N 51°54' E 004°25'0 0.0
2017-Mar-22 21:33N 51°54' E 004°25'0 0.0
2017-Mar-22 20:33N 51°54' E 004°25'0 0.0
2017-Mar-22 19:32N 51°54' E 004°25'0 0.0
2017-Mar-22 18:31N 51°54' E 004°25'0 0.0
2017-Mar-22 17:31N 51°54' E 004°25'0 0.1
2017-Mar-22 16:32N 51°54' E 004°25'6 6.3
2017-Mar-22 15:34N 51°55' E 004°15'10 9.6
2017-Mar-22 14:34N 51°60' E 004°02'6512.2
2017-Mar-22 09:16N 51°35' E 002°25'1013.7
2017-Mar-22 08:33N 51°27' E 002°15'1413.9
2017-Mar-22 07:33N 51°15' E 002°04'1414.1
2017-Mar-22 06:33N 51°06' E 001°47'1514.9
2017-Mar-22 05:33N 50°55' E 001°31'6612.8
2017-Mar-22 00:21N 50°18' E 000°04'1012.8
2017-Mar-21 23:33N 50°15' W 000°11'1412.5
2017-Mar-21 22:27N 50°12' W 000°32'1112.1
2017-Mar-21 21:33N 50°09' W 000°48'1211.9
2017-Mar-21 20:32N 50°06' W 001°07'1111.7
2017-Mar-21 19:33N 50°03' W 001°24'1211.8
2017-Mar-21 18:34N 49°60' W 001°42'1212.1
2017-Mar-21 17:33N 49°57' W 001°60'13213.1
2017-Mar-21 07:28N 48°59' W 005°03'1213.1
2017-Mar-21 06:33N 48°52' W 005°18'56711.8
2017-Mar-19 06:32N 40°16' W 010°45'1111.1
2017-Mar-19 05:33N 40°05' W 010°48'6111.0
2017-Mar-19 00:03N 39°06' W 011°06'611.3
2017-Mar-18 23:33N 39°01' W 011°08'1111.3
2017-Mar-18 22:33N 38°50' W 011°11'1111.4
2017-Mar-18 21:33N 38°38' W 011°15'1211.6
2017-Mar-18 20:33N 38°27' W 011°18'1111.3
2017-Mar-18 19:33N 38°16' W 011°21'1111.1
2017-Mar-18 18:33N 38°05' W 011°24'1211.2
2017-Mar-18 17:29N 37°54' W 011°28'1011.2
2017-Mar-18 16:33N 37°43' W 011°31'1111.1
2017-Mar-18 15:33N 37°33' W 011°34'1111.2
2017-Mar-18 14:33N 37°22' W 011°38'1111.0
2017-Mar-18 13:33N 37°11' W 011°42'1110.9
2017-Mar-18 12:33N 37°01' W 011°45'2311.0
2017-Mar-18 10:30N 36°38' W 011°51'1011.0
2017-Mar-18 09:33N 36°28' W 011°54'  

Dump ship's entire track history